createdAt,value
2024-04-05T00:00:15.066Z,84.76
2024-04-05T00:02:47.952Z,85.19
2024-04-05T00:05:00.412Z,85.30
2024-04-05T00:07:13.575Z,85.37
2024-04-05T00:09:27.068Z,85.48
2024-04-05T00:12:08.440Z,85.45
2024-04-05T00:14:20.966Z,85.61
2024-04-05T00:16:33.548Z,86.05
2024-04-05T00:18:46.360Z,86.11
2024-04-05T00:20:58.736Z,86.37
2024-04-05T00:23:11.277Z,86.53
2024-04-05T00:25:24.354Z,86.73
2024-04-05T00:27:36.825Z,87.05
2024-04-05T00:29:49.607Z,87.17
2024-04-05T00:32:02.968Z,87.27
2024-04-05T00:34:15.577Z,87.67
2024-04-05T00:36:28.033Z,87.83
2024-04-05T00:38:40.518Z,88.09
2024-04-05T00:40:53.913Z,88.27
2024-04-05T00:43:06.547Z,88.62
2024-04-05T00:45:19.071Z,88.93
2024-04-05T00:47:34.628Z,89.04
2024-04-05T00:49:48.643Z,89.06
2024-04-05T00:52:01.472Z,89.24
2024-04-05T00:54:14.349Z,89.27
2024-04-05T00:56:29.099Z,89.65
2024-04-05T00:58:42.021Z,89.75
2024-04-05T01:00:54.954Z,89.89
2024-04-05T01:03:07.574Z,89.93
2024-04-05T01:05:20.723Z,90.14
2024-04-05T01:07:33.725Z,90.33
2024-04-05T01:09:46.140Z,90.52
2024-04-05T01:11:59.333Z,90.81
2024-04-05T01:14:11.833Z,91.07
2024-04-05T01:16:24.370Z,91.48
2024-04-05T01:18:36.785Z,91.70
2024-04-05T01:20:53.378Z,91.98
2024-04-05T01:23:11.409Z,92.39
2024-04-05T01:25:24.191Z,92.46
2024-04-05T01:27:36.626Z,92.87
2024-04-05T01:29:49.090Z,92.94
2024-04-05T01:32:01.621Z,93.02
2024-04-05T01:34:14.056Z,93.13
2024-04-05T01:36:26.549Z,93.23
2024-04-05T01:38:39.153Z,93.35
2024-04-05T01:40:51.603Z,93.65
2024-04-05T01:43:04.284Z,93.81
2024-04-05T01:45:16.953Z,93.94
2024-04-05T01:47:29.467Z,94.22
2024-04-05T01:49:41.996Z,94.61
2024-04-05T01:51:54.543Z,94.70
2024-04-05T01:54:07.067Z,95.05
2024-04-05T01:56:19.604Z,95.29
2024-04-05T01:58:32.269Z,95.69
2024-04-05T02:00:44.662Z,95.80
2024-04-05T02:02:57.128Z,96.05
2024-04-05T02:05:09.775Z,96.17
2024-04-05T02:07:25.667Z,96.41
2024-04-05T02:09:38.512Z,96.60
2024-04-05T02:11:51.163Z,96.70
2024-04-05T02:14:04.324Z,96.75
2024-04-05T02:16:16.733Z,96.88
2024-04-05T02:18:29.277Z,97.38
2024-04-05T02:20:44.204Z,97.06
2024-04-05T02:22:56.730Z,97.34
2024-04-05T02:25:09.249Z,97.57
2024-04-05T02:27:21.649Z,97.88
2024-04-05T02:29:34.314Z,97.90
2024-04-05T02:31:46.875Z,98.14
2024-04-05T02:33:59.411Z,98.14
2024-04-05T02:36:11.746Z,98.33
2024-04-05T02:38:24.519Z,98.42
2024-04-05T02:40:37.103Z,98.62
2024-04-05T02:42:49.654Z,98.56
2024-04-05T02:45:03.058Z,98.70
2024-04-05T02:47:15.596Z,98.86
2024-04-05T02:49:28.065Z,98.88
2024-04-05T02:51:40.546Z,99.09
2024-04-05T02:53:52.984Z,98.93
2024-04-05T02:56:05.952Z,99.02
2024-04-05T02:58:18.473Z,99.05
2024-04-05T03:00:31.002Z,98.74
2024-04-05T03:02:43.449Z,99.21
2024-04-05T03:04:55.844Z,99.12
2024-04-05T03:07:08.353Z,99.32
2024-04-05T03:09:21.405Z,99.34
2024-04-05T03:11:33.828Z,99.43
2024-04-05T03:13:46.411Z,99.51
2024-04-05T03:15:58.866Z,99.45
2024-04-05T03:18:11.412Z,99.47
2024-04-05T03:20:23.969Z,99.73
2024-04-05T03:22:36.425Z,99.74
2024-04-05T03:24:48.840Z,99.89
2024-04-05T03:27:01.401Z,99.80
2024-04-05T03:29:15.995Z,99.83
2024-04-05T03:31:29.115Z,99.91
2024-04-05T03:33:41.600Z,99.83
2024-04-05T03:35:54.043Z,99.91
2024-04-05T03:38:06.605Z,100.00
2024-04-05T03:40:19.299Z,100.00
2024-04-05T03:42:31.823Z,100.00
2024-04-05T03:44:44.645Z,100.00
2024-04-05T03:46:57.093Z,100.00
2024-04-05T03:49:09.995Z,100.00
2024-04-05T03:51:22.557Z,100.00
2024-04-05T03:53:35.040Z,100.00
2024-04-05T03:55:47.538Z,100.00
2024-04-05T03:58:00.083Z,100.00
2024-04-05T04:00:12.720Z,100.00
2024-04-05T04:02:25.268Z,100.00
2024-04-05T04:04:38.110Z,100.00
2024-04-05T04:06:53.526Z,100.00
2024-04-05T04:09:06.395Z,100.00
2024-04-05T04:11:18.943Z,100.00
2024-04-05T04:13:31.960Z,100.00
2024-04-05T04:15:44.745Z,100.00
2024-04-05T04:17:57.176Z,100.00
2024-04-05T04:20:10.580Z,100.00
2024-04-05T04:22:23.015Z,100.00
2024-04-05T04:24:35.582Z,100.00
2024-04-05T04:26:47.995Z,100.00
2024-04-05T04:29:00.482Z,100.00
2024-04-05T04:31:23.079Z,100.00
2024-04-05T04:33:35.594Z,100.00
2024-04-05T04:35:48.186Z,100.00
2024-04-05T04:38:00.655Z,100.00
2024-04-05T04:40:13.113Z,100.00
2024-04-05T04:42:25.678Z,100.00
2024-04-05T04:44:38.338Z,100.00
2024-04-05T04:46:50.943Z,100.00
2024-04-05T04:49:03.603Z,100.00
2024-04-05T04:51:16.064Z,100.00
2024-04-05T04:53:28.484Z,100.00
2024-04-05T04:55:42.702Z,100.00
2024-04-05T04:57:55.160Z,100.00
2024-04-05T05:00:08.854Z,100.00
2024-04-05T05:02:21.355Z,100.00
2024-04-05T05:04:33.818Z,100.00
2024-04-05T05:06:47.003Z,100.00
2024-04-05T05:08:59.771Z,100.00
2024-04-05T05:11:12.317Z,100.00
2024-04-05T05:13:24.778Z,100.00
2024-04-05T05:15:37.374Z,100.00
2024-04-05T05:17:50.133Z,100.00
2024-04-05T05:20:02.522Z,100.00
2024-04-05T05:22:15.032Z,100.00
2024-04-05T05:24:27.511Z,100.00
2024-04-05T05:26:40.026Z,100.00
2024-04-05T05:28:52.477Z,100.00
2024-04-05T05:31:04.937Z,100.00
2024-04-05T05:33:17.439Z,100.00
2024-04-05T05:35:30.686Z,100.00
2024-04-05T05:37:45.354Z,100.00
2024-04-05T05:39:58.923Z,100.00
2024-04-05T05:42:11.805Z,100.00
2024-04-05T05:44:24.521Z,100.00
2024-04-05T05:46:37.035Z,100.00
2024-04-05T05:48:49.904Z,100.00
2024-04-05T05:51:02.477Z,100.00
2024-04-05T05:53:15.031Z,100.00
2024-04-05T05:55:28.407Z,100.00
2024-04-05T05:57:40.918Z,100.00
2024-04-05T05:59:53.376Z,100.00
2024-04-05T06:02:08.216Z,100.00
2024-04-05T06:04:21.885Z,100.00
2024-04-05T06:06:34.278Z,100.00
2024-04-05T06:08:46.743Z,100.00
2024-04-05T06:10:59.861Z,100.00
2024-04-05T06:13:12.371Z,100.00
2024-04-05T06:15:24.816Z,100.00
2024-04-05T06:17:37.543Z,99.68
2024-04-05T06:19:55.512Z,99.51
2024-04-05T06:22:07.970Z,99.22
2024-04-05T06:24:20.480Z,98.73
2024-04-05T06:26:36.323Z,98.34
2024-04-05T06:28:48.772Z,97.59
2024-04-05T06:31:02.294Z,97.37
2024-04-05T06:33:15.282Z,96.95
2024-04-05T06:35:27.635Z,96.22
2024-04-05T06:37:40.088Z,95.14
2024-04-05T06:39:56.082Z,95.29
2024-04-05T06:42:09.146Z,94.77
2024-04-05T06:44:22.076Z,94.27
2024-04-05T06:46:34.528Z,94.22
2024-04-05T06:48:47.204Z,93.42
2024-04-05T06:50:59.647Z,91.92
2024-04-05T06:53:12.640Z,91.05
2024-04-05T06:55:25.472Z,90.29
2024-04-05T06:57:38.574Z,90.26
2024-04-05T06:59:51.051Z,89.34
2024-04-05T07:02:04.626Z,88.46
2024-04-05T07:04:17.125Z,87.22
2024-04-05T07:06:33.249Z,85.88
2024-04-05T07:08:46.781Z,85.66
2024-04-05T07:10:59.620Z,85.33
2024-04-05T07:13:12.114Z,84.93
2024-04-05T07:15:24.843Z,84.97
2024-04-05T07:17:37.413Z,84.14
2024-04-05T07:19:49.911Z,84.19
2024-04-05T07:22:02.409Z,83.71
2024-04-05T07:24:15.660Z,82.86
2024-04-05T07:26:28.827Z,83.01
2024-04-05T07:28:41.251Z,83.03
2024-04-05T07:30:56.507Z,81.80
2024-04-05T07:33:09.426Z,82.28
2024-04-05T07:35:23.178Z,82.13
2024-04-05T07:37:35.608Z,82.38
2024-04-05T07:39:51.089Z,82.92
2024-04-05T07:42:03.667Z,78.06
2024-04-05T07:44:16.039Z,77.59
2024-04-05T07:46:28.481Z,75.41
2024-04-05T07:48:41.755Z,74.62
2024-04-05T07:50:58.407Z,73.67
2024-04-05T07:53:10.822Z,73.65
2024-04-05T07:55:23.276Z,73.73
2024-04-05T07:57:40.423Z,72.41
2024-04-05T07:59:52.806Z,72.20
2024-04-05T08:02:05.994Z,71.52
2024-04-05T08:04:18.712Z,70.78
2024-04-05T08:06:31.149Z,70.79
2024-04-05T08:08:46.227Z,70.65
2024-04-05T08:11:02.218Z,70.63
2024-04-05T08:13:14.902Z,70.72
2024-04-05T08:15:28.710Z,70.58
2024-04-05T08:17:41.324Z,70.21
2024-04-05T08:19:53.778Z,70.40
2024-04-05T08:22:07.632Z,69.30
2024-04-05T08:24:20.132Z,68.68
2024-04-05T08:26:32.957Z,70.15
2024-04-05T08:28:45.413Z,68.97
2024-04-05T08:30:58.350Z,66.62
2024-04-05T08:33:10.763Z,66.28
2024-04-05T08:35:23.313Z,65.01
2024-04-05T08:37:36.753Z,63.21
2024-04-05T08:39:49.187Z,63.01
2024-04-05T08:42:17.108Z,62.12
2024-04-05T08:44:32.894Z,61.57
2024-04-05T08:46:45.394Z,62.07
2024-04-05T08:49:00.553Z,61.90
2024-04-05T08:51:14.094Z,61.35
2024-04-05T08:53:26.526Z,60.80
2024-04-05T08:55:39.626Z,60.72
2024-04-05T08:57:53.040Z,60.80
2024-04-05T09:00:08.953Z,60.99
2024-04-05T09:02:24.361Z,61.48
2024-04-05T09:04:37.875Z,61.52
2024-04-05T09:06:50.298Z,61.33
2024-04-05T09:09:02.762Z,61.34
2024-04-05T09:11:20.314Z,60.86
2024-04-05T09:13:32.716Z,60.05
2024-04-05T09:15:52.552Z,59.97
2024-04-05T09:18:05.303Z,58.87
2024-04-05T09:20:25.221Z,56.68
2024-04-05T09:22:37.774Z,56.15
2024-04-05T09:25:00.431Z,55.70
2024-04-05T09:27:19.751Z,54.51
2024-04-05T09:29:32.814Z,53.14
2024-04-05T09:31:48.071Z,52.51
2024-04-05T09:34:15.514Z,51.31
2024-04-05T09:36:29.947Z,51.54
2024-04-05T09:38:45.728Z,50.44
2024-04-05T09:40:59.048Z,49.30
2024-04-05T09:43:12.766Z,49.34
2024-04-05T09:45:25.383Z,49.22
2024-04-05T09:47:41.107Z,47.77
2024-04-05T09:49:53.618Z,47.58
2024-04-05T09:52:10.797Z,47.35
2024-04-05T09:54:25.943Z,46.81
2024-04-05T09:56:39.696Z,47.09
2024-04-05T09:58:55.280Z,47.06
2024-04-05T10:01:09.520Z,47.12
2024-04-05T10:03:22.358Z,47.62
2024-04-05T10:05:35.217Z,46.41
2024-04-05T10:07:47.740Z,45.74
2024-04-05T10:10:09.918Z,45.49
2024-04-05T10:12:24.101Z,45.08
2024-04-05T10:14:37.305Z,45.28
2024-04-05T10:16:49.849Z,45.63
2024-04-05T10:19:12.806Z,45.53
2024-04-05T10:21:33.303Z,44.59
2024-04-05T10:23:48.488Z,43.34
2024-04-05T10:26:04.048Z,43.81
2024-04-05T10:28:20.290Z,44.22
2024-04-05T10:30:33.563Z,43.81
2024-04-05T10:33:00.083Z,43.77
2024-04-05T10:35:15.169Z,44.23
2024-04-05T10:37:32.727Z,43.94
2024-04-05T10:39:45.581Z,43.72
2024-04-05T10:41:58.037Z,43.19
2024-04-05T10:44:10.942Z,43.66
2024-04-05T10:46:23.469Z,43.90
2024-04-05T10:48:36.110Z,44.01
2024-04-05T10:50:49.779Z,43.45
2024-04-05T10:53:02.263Z,42.72
2024-04-05T10:55:15.044Z,43.19
2024-04-05T10:57:31.443Z,42.88
2024-04-05T10:59:45.694Z,42.71
2024-04-05T11:01:58.255Z,42.87
2024-04-05T11:04:11.603Z,42.74
2024-04-05T11:06:24.162Z,43.07
2024-04-05T11:08:36.629Z,43.57
2024-04-05T11:10:49.076Z,43.67
2024-04-05T11:13:12.830Z,43.40
2024-04-05T11:15:25.804Z,42.73
2024-04-05T11:17:39.869Z,42.67
2024-04-05T11:19:52.292Z,42.98
2024-04-05T11:22:05.094Z,43.58
2024-04-05T11:24:18.362Z,43.41
2024-04-05T11:26:31.802Z,43.47
2024-04-05T11:28:46.243Z,42.98
2024-04-05T11:30:58.882Z,42.46
2024-04-05T11:33:12.031Z,41.91
2024-04-05T11:35:24.507Z,42.01
2024-04-05T11:37:36.950Z,41.33
2024-04-05T11:39:49.501Z,41.06
2024-04-05T11:42:01.870Z,41.44
2024-04-05T11:44:14.235Z,41.80
2024-04-05T11:46:27.571Z,41.73
2024-04-05T11:48:39.948Z,41.70
2024-04-05T11:50:52.365Z,41.97
2024-04-05T11:53:05.245Z,42.15
2024-04-05T11:55:19.001Z,42.00
2024-04-05T11:57:32.080Z,41.33
2024-04-05T11:59:45.030Z,41.15
2024-04-05T12:01:58.517Z,41.04
2024-04-05T12:04:12.270Z,41.25
2024-04-05T12:06:24.808Z,41.32
2024-04-05T12:08:37.256Z,41.22
2024-04-05T12:10:49.656Z,41.41
2024-04-05T12:13:02.127Z,41.25
2024-04-05T12:15:16.532Z,40.43
2024-04-05T12:17:28.880Z,39.38
2024-04-05T12:19:41.474Z,38.97
2024-04-05T12:21:54.514Z,39.14
2024-04-05T12:24:08.276Z,38.73
2024-04-05T12:26:23.506Z,38.05
2024-04-05T12:28:39.293Z,37.64
2024-04-05T12:30:51.875Z,38.29
2024-04-05T12:33:04.378Z,37.14
2024-04-05T12:35:17.281Z,35.95
2024-04-05T12:37:29.667Z,35.71
2024-04-05T12:39:46.495Z,35.99
2024-04-05T12:41:58.989Z,36.19
2024-04-05T12:44:11.398Z,35.69
2024-04-05T12:46:23.950Z,35.91
2024-04-05T12:48:36.727Z,36.43
2024-04-05T12:51:00.360Z,36.05
2024-04-05T12:53:13.447Z,36.04
2024-04-05T12:55:25.810Z,36.47
2024-04-05T12:57:39.012Z,35.94
2024-04-05T12:59:51.713Z,36.16
2024-04-05T13:02:04.787Z,36.75
2024-04-05T13:04:17.267Z,36.72
2024-04-05T13:06:29.709Z,36.16
2024-04-05T13:08:42.286Z,36.30
2024-04-05T13:10:58.451Z,36.51
2024-04-05T13:13:10.928Z,36.13
2024-04-05T13:15:23.423Z,35.87
2024-04-05T13:17:36.393Z,34.82
2024-04-05T13:19:50.061Z,34.05
2024-04-05T13:22:02.722Z,33.56
2024-04-05T13:24:15.301Z,33.18
2024-04-05T13:26:27.778Z,33.20
2024-04-05T13:28:41.075Z,33.57
2024-04-05T13:30:59.891Z,33.76
2024-04-05T13:33:12.359Z,33.92
2024-04-05T13:35:29.551Z,34.09
2024-04-05T13:37:41.984Z,34.16
2024-04-05T13:39:54.562Z,34.22
2024-04-05T13:42:07.510Z,34.86
2024-04-05T13:44:21.243Z,34.66
2024-04-05T13:46:33.912Z,34.83
2024-04-05T13:48:52.691Z,34.68
2024-04-05T13:51:08.277Z,35.04
2024-04-05T13:53:20.685Z,35.52
2024-04-05T13:55:33.246Z,35.95
2024-04-05T13:57:45.795Z,36.37
2024-04-05T13:59:58.256Z,36.60
2024-04-05T14:02:10.821Z,36.83
2024-04-05T14:04:23.322Z,36.89
2024-04-05T14:06:35.778Z,36.53
2024-04-05T14:08:48.337Z,36.34
2024-04-05T14:11:01.387Z,36.54
2024-04-05T14:13:14.917Z,37.02
2024-04-05T14:15:27.743Z,37.10
2024-04-05T14:17:41.117Z,36.87
2024-04-05T14:19:55.105Z,36.62
2024-04-05T14:22:07.867Z,37.19
2024-04-05T14:24:20.370Z,37.70
2024-04-05T14:26:32.765Z,37.70
2024-04-05T14:28:45.625Z,37.63
2024-04-05T14:31:08.442Z,38.18
2024-04-05T14:33:29.008Z,38.26
2024-04-05T14:35:41.457Z,38.43
2024-04-05T14:37:53.946Z,38.51
2024-04-05T14:40:06.836Z,38.47
2024-04-05T14:42:19.594Z,38.56
2024-04-05T14:44:32.988Z,38.77
2024-04-05T14:46:46.222Z,39.36
2024-04-05T14:48:59.701Z,40.09
2024-04-05T14:51:12.198Z,40.54
2024-04-05T14:53:24.979Z,40.71
2024-04-05T14:55:37.434Z,41.02
2024-04-05T14:57:49.869Z,41.81
2024-04-05T15:00:05.143Z,41.99
2024-04-05T15:02:17.670Z,41.99
2024-04-05T15:04:30.132Z,42.18
2024-04-05T15:06:42.634Z,42.29
2024-04-05T15:08:55.053Z,42.11
2024-04-05T15:11:09.233Z,42.22
2024-04-05T15:13:21.670Z,42.64
2024-04-05T15:15:34.068Z,42.56
2024-04-05T15:17:46.864Z,42.73
2024-04-05T15:19:59.313Z,42.67
2024-04-05T15:22:11.927Z,42.67
2024-04-05T15:24:24.337Z,42.59
2024-04-05T15:26:36.721Z,42.75
2024-04-05T15:28:49.905Z,42.92
2024-04-05T15:31:02.847Z,43.05
2024-04-05T15:33:15.241Z,43.34
2024-04-05T15:35:27.652Z,43.82
2024-04-05T15:37:40.145Z,44.14
2024-04-05T15:39:52.587Z,44.88
2024-04-05T15:42:05.411Z,45.80
2024-04-05T15:44:17.848Z,46.41
2024-04-05T15:46:31.864Z,46.99
2024-04-05T15:48:44.657Z,47.55
2024-04-05T15:51:02.693Z,48.03
2024-04-05T15:53:16.957Z,48.58
2024-04-05T15:55:29.358Z,48.72
2024-04-05T15:57:41.765Z,49.15
2024-04-05T15:59:54.625Z,49.58
2024-04-05T16:02:07.103Z,50.13
2024-04-05T16:04:20.142Z,50.18
2024-04-05T16:06:33.916Z,50.28
2024-04-05T16:08:46.381Z,50.88
2024-04-05T16:11:05.980Z,51.14
2024-04-05T16:13:18.605Z,51.33
2024-04-05T16:15:34.478Z,51.74
2024-04-05T16:17:47.126Z,52.09
2024-04-05T16:20:04.054Z,52.47
2024-04-05T16:22:16.480Z,52.65
2024-04-05T16:24:28.949Z,53.06
2024-04-05T16:26:41.410Z,53.59
2024-04-05T16:28:53.799Z,53.94
2024-04-05T16:31:10.439Z,54.52
2024-04-05T16:33:23.515Z,54.98
2024-04-05T16:35:36.163Z,55.46
2024-04-05T16:37:48.695Z,55.87
2024-04-05T16:40:01.150Z,56.30
2024-04-05T16:42:15.792Z,56.57
2024-04-05T16:44:28.220Z,56.96
2024-04-05T16:46:40.647Z,57.34
2024-04-05T16:48:53.158Z,57.55
2024-04-05T16:51:12.259Z,58.04
2024-04-05T16:53:24.782Z,58.21
2024-04-05T16:55:40.852Z,58.71
2024-04-05T16:57:53.360Z,58.89
2024-04-05T17:00:07.148Z,59.17
2024-04-05T17:02:19.813Z,59.48
2024-04-05T17:04:32.292Z,59.81
2024-04-05T17:06:45.112Z,60.20
2024-04-05T17:08:57.571Z,60.30
2024-04-05T17:11:14.535Z,60.65
2024-04-05T17:13:52.469Z,60.90
2024-04-05T17:16:08.770Z,61.39
2024-04-05T17:18:21.226Z,61.76
2024-04-05T17:20:33.622Z,62.05
2024-04-05T17:22:47.199Z,62.29
2024-04-05T17:24:59.671Z,62.54
2024-04-05T17:27:12.124Z,62.83
2024-04-05T17:29:24.568Z,62.85
2024-04-05T17:31:37.094Z,63.07
2024-04-05T17:33:49.734Z,63.34
2024-04-05T17:36:02.098Z,63.57
2024-04-05T17:38:18.415Z,63.84
2024-04-05T17:40:30.804Z,63.98
2024-04-05T17:42:43.266Z,64.00
2024-04-05T17:44:55.814Z,64.34
2024-04-05T17:47:08.243Z,64.60
2024-04-05T17:49:20.970Z,64.92
2024-04-05T17:51:33.454Z,65.19
2024-04-05T17:53:46.471Z,65.21
2024-04-05T17:56:01.917Z,65.48
2024-04-05T17:58:14.323Z,65.60
2024-04-05T18:00:27.313Z,65.73
2024-04-05T18:02:39.897Z,65.98
2024-04-05T18:04:54.101Z,65.96
2024-04-05T18:07:06.580Z,66.07
2024-04-05T18:09:19.077Z,66.30
2024-04-05T18:11:31.613Z,66.43
2024-04-05T18:13:45.540Z,66.54
2024-04-05T18:15:57.957Z,66.68
2024-04-05T18:18:10.803Z,66.88
2024-04-05T18:20:23.600Z,67.23
2024-04-05T18:22:36.568Z,67.33
2024-04-05T18:24:49.285Z,67.52
2024-04-05T18:27:01.826Z,67.61
2024-04-05T18:29:14.302Z,67.72
2024-04-05T18:31:27.118Z,67.89
2024-04-05T18:33:39.558Z,67.96
2024-04-05T18:35:51.952Z,68.18
2024-04-05T18:38:07.090Z,68.38
2024-04-05T18:40:19.789Z,68.54
2024-04-05T18:42:33.241Z,68.58
2024-04-05T18:44:45.813Z,68.87
2024-04-05T18:46:58.327Z,69.02
2024-04-05T18:49:14.627Z,69.08
2024-04-05T18:51:27.111Z,69.22
2024-04-05T18:53:40.724Z,69.41
2024-04-05T18:55:53.995Z,69.66
2024-04-05T18:58:07.241Z,69.69
2024-04-05T19:00:22.171Z,70.05
2024-04-05T19:02:37.255Z,70.32
2024-04-05T19:04:50.824Z,70.29
2024-04-05T19:07:03.328Z,70.83
2024-04-05T19:09:16.089Z,70.86
2024-04-05T19:11:28.566Z,71.01
2024-04-05T19:13:47.327Z,71.29
2024-04-05T19:15:59.829Z,71.48
2024-04-05T19:18:14.910Z,71.68
2024-04-05T19:20:27.517Z,71.85
2024-04-05T19:22:39.987Z,72.07
2024-04-05T19:24:52.470Z,72.14
2024-04-05T19:27:08.782Z,72.32
2024-04-05T19:29:21.430Z,72.63
2024-04-05T19:31:38.257Z,72.71
2024-04-05T19:33:51.002Z,72.73
2024-04-05T19:36:05.408Z,73.06
2024-04-05T19:38:18.367Z,73.21
2024-04-05T19:40:34.285Z,73.44
2024-04-05T19:42:46.980Z,73.32
2024-04-05T19:44:59.436Z,73.62
2024-04-05T19:47:12.694Z,73.73
2024-04-05T19:49:25.798Z,73.79
2024-04-05T19:51:38.293Z,74.02
2024-04-05T19:53:50.892Z,73.89
2024-04-05T19:56:03.939Z,73.98
2024-04-05T19:58:23.101Z,73.96
2024-04-05T20:00:42.983Z,73.95
2024-04-05T20:02:55.696Z,73.91
2024-04-05T20:05:09.057Z,74.19
2024-04-05T20:07:22.898Z,74.24
2024-04-05T20:09:35.805Z,74.25
2024-04-05T20:11:48.213Z,74.24
2024-04-05T20:14:00.759Z,74.29
2024-04-05T20:16:13.241Z,74.51
2024-04-05T20:18:25.767Z,74.49
2024-04-05T20:20:38.281Z,74.65
2024-04-05T20:22:51.068Z,74.76
2024-04-05T20:25:03.678Z,75.02
2024-04-05T20:27:16.220Z,75.20
2024-04-05T20:29:47.301Z,75.14
2024-04-05T20:32:18.390Z,75.10
2024-04-05T20:34:30.981Z,75.24
2024-04-05T20:36:43.727Z,75.24
2024-04-05T20:38:56.317Z,75.23
2024-04-05T20:41:09.631Z,75.41
2024-04-05T20:43:22.118Z,75.37
2024-04-05T20:45:34.547Z,75.48
2024-04-05T20:47:48.012Z,75.75
2024-04-05T20:50:00.471Z,75.75
2024-04-05T20:52:13.363Z,76.15
2024-04-05T20:54:28.572Z,76.24
2024-04-05T20:56:41.092Z,76.14
2024-04-05T20:58:54.219Z,76.24
2024-04-05T21:01:06.656Z,76.17
2024-04-05T21:03:19.031Z,76.06
2024-04-05T21:05:31.565Z,76.11
2024-04-05T21:07:44.188Z,76.23
2024-04-05T21:09:57.967Z,76.11
2024-04-05T21:12:10.511Z,75.97
2024-04-05T21:14:22.950Z,76.06
2024-04-05T21:16:35.612Z,76.08
2024-04-05T21:18:48.048Z,76.23
2024-04-05T21:21:00.609Z,76.30
2024-04-05T21:23:13.913Z,76.33
2024-04-05T21:25:26.415Z,76.29
2024-04-05T21:27:38.867Z,76.17
2024-04-05T21:29:51.369Z,76.11
2024-04-05T21:32:04.210Z,75.86
2024-04-05T21:34:16.688Z,75.67
2024-04-05T21:36:29.183Z,75.70
2024-04-05T21:38:41.697Z,75.43
2024-04-05T21:40:54.262Z,75.24
2024-04-05T21:43:06.690Z,75.01
2024-04-05T21:45:19.249Z,74.79
2024-04-05T21:47:31.737Z,74.48
2024-04-05T21:51:59.658Z,73.97
2024-04-05T21:54:12.277Z,73.61
2024-04-05T21:56:24.906Z,73.46
2024-04-05T21:58:37.387Z,73.27
2024-04-05T22:00:50.006Z,73.25
2024-04-05T22:03:03.662Z,73.09
2024-04-05T22:05:16.662Z,73.00
2024-04-05T22:07:29.130Z,72.91
2024-04-05T22:09:41.596Z,72.84
2024-04-05T22:11:54.196Z,72.86
2024-04-05T22:14:13.945Z,72.73
2024-04-05T22:16:32.694Z,72.89
2024-04-05T22:18:45.103Z,72.98
2024-04-05T22:21:01.396Z,73.07
2024-04-05T22:23:13.957Z,73.04
2024-04-05T22:25:26.522Z,72.92
2024-04-05T22:27:39.670Z,72.83
2024-04-05T22:29:52.553Z,72.80
2024-04-05T22:32:05.265Z,72.73
2024-04-05T22:34:17.658Z,72.59
2024-04-05T22:36:30.093Z,72.49
2024-04-05T22:38:42.713Z,72.36
2024-04-05T22:40:55.942Z,72.25
2024-04-05T22:43:10.339Z,72.14
2024-04-05T22:45:24.525Z,71.81
2024-04-05T22:47:38.775Z,71.59
2024-04-05T22:49:52.616Z,71.37
2024-04-05T22:52:05.336Z,71.01
2024-04-05T22:54:19.723Z,70.83
2024-04-05T22:56:32.402Z,70.70
2024-04-05T22:58:47.020Z,70.51
2024-04-05T23:00:59.429Z,70.31
2024-04-05T23:03:11.840Z,70.21
2024-04-05T23:05:24.345Z,70.16
2024-04-05T23:07:37.961Z,69.85
2024-04-05T23:09:50.343Z,69.68
2024-04-05T23:12:03.043Z,69.61
2024-04-05T23:14:15.614Z,69.44
2024-04-05T23:16:28.083Z,69.35
2024-04-05T23:18:40.590Z,69.12
2024-04-05T23:20:53.099Z,69.04
2024-04-05T23:23:05.771Z,68.87
2024-04-05T23:25:18.308Z,68.81
2024-04-05T23:27:30.755Z,68.94
2024-04-05T23:29:44.891Z,68.91
2024-04-05T23:31:59.596Z,69.37
2024-04-05T23:34:12.073Z,69.74
2024-04-05T23:36:24.490Z,70.03
2024-04-05T23:38:39.023Z,70.22
2024-04-05T23:40:51.430Z,70.54
2024-04-05T23:43:05.086Z,70.93
2024-04-05T23:45:17.551Z,71.20
2024-04-05T23:47:30.152Z,71.56
2024-04-05T23:49:42.722Z,71.93
2024-04-05T23:51:55.091Z,72.22
2024-04-05T23:54:07.517Z,72.48
2024-04-05T23:56:45.477Z,72.86
2024-04-05T23:58:58.076Z,72.96
